Pilot No 5 — WDC3840 — position and weather

sailwx.info

Track history (hours):
 
Tides and Currents Weather Stations Pressure Air Temp Water Temp Dewpoint Dewpoint Depression Visibility Wind Speed Wind Dir Waves Ship Positions

Pilot No 5

Owner: P E P INC, FT LAUDERDALE, FL. More information available from US FCC via Universal Licensing System and Coast Guard Vessel Documentation Center.

Last reported at 2016-May-02 18:06 UTC. Time now 2016-May-03 06:47 UTC.
Position N 26°06' W 080°07'.

Length 6 m.

Type: Pilot. MMSI: 367015090.

Date/timePositionNaut miles runAvg speedWind from/ knotsBaromVisibWave heightAir tempDewpointWater temp
2016-May-02 18:06N 26°06' W 080°07'2 3.1
2016-May-02 17:33N 26°04' W 080°07'1 1.1
2016-May-02 16:34N 26°06' W 080°07'0 0.4
2016-May-02 15:25N 26°06' W 080°07'0 0.3
2016-May-02 14:33N 26°06' W 080°07'3 3.5
2016-May-02 13:33N 26°06' W 080°03'3 3.1
2016-May-02 12:33N 26°06' W 080°07'3 3.4
2016-May-02 11:33N 26°06' W 080°03'1 1.3
2016-May-02 10:33N 26°06' W 080°04'3 2.6
2016-May-02 09:33N 26°04' W 080°07'2 1.3
2016-May-02 08:12N 26°06' W 080°07'2 2.8
2016-May-02 07:33N 26°06' W 080°05'1 0.5
2016-May-02 04:33N 26°06' W 080°07'0 0.1
2016-May-02 03:33N 26°06' W 080°07'1 0.3
2016-May-02 01:28N 26°06' W 080°07'0 0.5
2016-May-02 00:33N 26°06' W 080°07'0 0.4
2016-May-01 23:23N 26°06' W 080°07'1 0.9
2016-May-01 22:33N 26°05' W 080°07'0 0.2
2016-May-01 21:33N 26°05' W 080°07'0 0.3
2016-May-01 20:33N 26°06' W 080°07'1 0.7
2016-May-01 18:33N 26°06' W 080°05'2 0.5
2016-May-01 15:06N 26°06' W 080°07'1 1.5
2016-May-01 14:33N 26°06' W 080°07'3 3.1
2016-May-01 13:33N 26°05' W 080°03'3 3.3
2016-May-01 12:34N 26°06' W 080°07'0 0.3
2016-May-01 11:33N 26°06' W 080°07'1 0.4
2016-May-01 10:22N 26°06' W 080°07'1 1.3
2016-May-01 09:33N 26°05' W 080°07'1 0.6
2016-May-01 08:33N 26°06' W 080°06'1 0.8
2016-May-01 07:33N 26°05' W 080°07'1 1.0
2016-May-01 06:33N 26°06' W 080°07'2 1.9
2016-May-01 05:33N 26°06' W 080°05'1 1.4
2016-May-01 04:33N 26°05' W 080°07'0 0.3
2016-May-01 03:33N 26°06' W 080°07'1 0.7
2016-May-01 02:33N 26°06' W 080°07'3 3.0
2016-May-01 01:34N 26°05' W 080°05'3 3.0
2016-May-01 00:33N 26°06' W 080°07'0 0.5
2016-Apr-30 23:33N 26°06' W 080°07'1 1.5
2016-Apr-30 22:33N 26°04' W 080°07'1 1.3
2016-Apr-30 21:33N 26°06' W 080°07'0 0.1
2016-Apr-30 20:33N 26°06' W 080°07'1 0.8
2016-Apr-30 19:33N 26°06' W 080°07'0 0.0
2016-Apr-30 09:24N 26°06' W 080°07'5 6.0
2016-Apr-30 08:33N 26°05' W 080°02'5 5.0
2016-Apr-30 07:33N 26°06' W 080°07'2 2.2
2016-Apr-30 06:33N 26°05' W 080°05'2 1.9
2016-Apr-30 05:33N 26°05' W 080°07'0 0.4
2016-Apr-30 04:33N 26°05' W 080°07'1 1.1
2016-Apr-30 03:33N 26°06' W 080°07'0 0.1
2016-Apr-30 01:33N 26°06' W 080°07'1 0.6
2016-Apr-30 00:34N 26°06' W 080°07'1 0.3
2016-Apr-29 22:33N 26°06' W 080°07'0 0.4
2016-Apr-29 21:33N 26°05' W 080°07'2 2.5
2016-Apr-29 20:33N 26°06' W 080°05'3 0.5
2016-Apr-29 14:33N 26°04' W 080°07'2 1.7
2016-Apr-29 13:33N 26°06' W 080°07'0 0.0
2016-Apr-29 12:33N 26°06' W 080°07'0 0.2
2016-Apr-29 11:33N 26°06' W 080°07'1 0.8
2016-Apr-29 10:33N 26°05' W 080°07'0 0.1
2016-Apr-29 09:33N 26°05' W 080°07'2 1.5
2016-Apr-29 08:34N 26°06' W 080°05'2 1.9
2016-Apr-29 07:33N 26°04' W 080°07'0 0.3
2016-Apr-29 06:33N 26°05' W 080°07'2 2.2
2016-Apr-29 05:34N 26°06' W 080°05'2 2.0
2016-Apr-29 04:33N 26°05' W 080°07'1 1.1
2016-Apr-29 03:33N 26°06' W 080°07'3 2.8
2016-Apr-29 02:33N 26°06' W 080°04'2 2.3
2016-Apr-29 01:33N 26°06' W 080°07'1 1.1
2016-Apr-29 00:33N 26°06' W 080°06'0 0.1
2016-Apr-28 23:33N 26°06' W 080°05'1 1.1
2016-Apr-28 22:34N 26°06' W 080°07'1 0.1
2016-Apr-28 13:33N 26°06' W 080°07'0 0.0
2016-Apr-28 11:30N 26°06' W 080°07'4 4.4
2016-Apr-28 10:33N 26°06' W 080°03'3 3.5
2016-Apr-28 09:33N 26°06' W 080°07'1 0.5
2016-Apr-28 08:33N 26°06' W 080°07'1 1.1
2016-Apr-28 07:33N 26°04' W 080°07'2 1.5
2016-Apr-28 06:33N 26°06' W 080°06'1 1.1
2016-Apr-28 05:18N 26°06' W 080°07'1 1.7
2016-Apr-28 04:33N 26°06' W 080°06'1 0.6
2016-Apr-28 03:33N 26°06' W 080°07'1 0.3
2016-Apr-28 01:11N 26°06' W 080°07'4 6.8
2016-Apr-28 00:34N 26°06' W 080°03'4 4.0
2016-Apr-27 23:33N 26°06' W 080°07'1 0.8
2016-Apr-27 22:33N 26°05' W 080°07'2 2.3
2016-Apr-27 21:33N 26°06' W 080°04'3 2.8
2016-Apr-27 20:33N 26°04' W 080°07'2 1.6
2016-Apr-27 19:33N 26°06' W 080°07'1 0.4
2016-Apr-27 18:09N 26°06' W 080°07'2 3.0
2016-Apr-27 17:33N 26°04' W 080°07'2 1.6
2016-Apr-27 16:33N 26°06' W 080°06'2 1.5
2016-Apr-27 15:33N 26°06' W 080°07'0 0.0
2016-Apr-27 14:34N 26°06' W 080°07'0 0.0
2016-Apr-27 13:34N 26°06' W 080°07'3 2.7
2016-Apr-27 12:34N 26°06' W 080°04'3 2.7
2016-Apr-27 11:34N 26°06' W 080°07'0 0.0
2016-Apr-27 10:33N 26°06' W 080°07'0 0.0
2016-Apr-27 03:08N 26°06' W 080°07'0 0.8
2016-Apr-27 02:33N 26°06' W 080°07'0 0.5
2016-Apr-27 01:30N 26°06' W 080°07'1 0.3
2016-Apr-26 23:34N 26°06' W 080°07'0 0.4
2016-Apr-26 22:33N 26°05' W 080°07'1 0.7
2016-Apr-26 21:33N 26°06' W 080°07'3 3.2
2016-Apr-26 20:33N 26°06' W 080°04'3 3.2
2016-Apr-26 19:33N 26°06' W 080°07'3 2.5
2016-Apr-26 18:32N 26°04' W 080°08'3 2.7
2016-Apr-26 17:33N 26°06' W 080°06'1 1.3
2016-Apr-26 16:33N 26°06' W 080°07'0 0.4
2016-Apr-26 15:33N 26°06' W 080°07'0 0.1
2016-Apr-26 14:33N 26°06' W 080°07'0 0.1
2016-Apr-26 13:33N 26°06' W 080°07'1 1.3
2016-Apr-26 12:33N 26°06' W 080°06'1 0.5
2016-Apr-26 11:33N 26°06' W 080°07'1 0.1
2016-Apr-26 02:33N 26°06' W 080°07'0 0.1
2016-Apr-26 01:33N 26°06' W 080°07'1 0.6
2016-Apr-26 00:33N 26°06' W 080°07'2 1.8
2016-Apr-25 23:33N 26°06' W 080°05'2 1.6
2016-Apr-25 22:33N 26°05' W 080°07'0 0.2
2016-Apr-25 21:33N 26°06' W 080°07'2 2.0
2016-Apr-25 20:33N 26°05' W 080°05'3 0.7
2016-Apr-25 17:04N 26°06' W 080°07'0 0.0
2016-Apr-25 16:33N 26°06' W 080°07'1 1.5
2016-Apr-25 15:33N 26°06' W 080°06'1 0.8
2016-Apr-25 14:33N 26°05' W 080°05'2 2.0
2016-Apr-25 13:33N 26°06' W 080°07'1 0.6
2016-Apr-25 12:33N 26°06' W 080°07'3 3.3
2016-Apr-25 11:34N 26°05' W 080°03'3 3.3
2016-Apr-25 10:33N 26°06' W 080°06'0 0.3
2016-Apr-25 09:33N 26°06' W 080°07'3 3.2
2016-Apr-25 08:34N 26°06' W 080°03'2 1.5
2016-Apr-25 07:33N 26°05' W 080°05'2 2.1
2016-Apr-25 06:33N 26°04' W 080°07'2 0.6
2016-Apr-25 03:08N 26°06' W 080°07'1 1.3
2016-Apr-25 02:33N 26°05' W 080°07'0 0.3
2016-Apr-25 01:33N 26°06' W 080°07'0 0.2
2016-Apr-24 22:14N 26°06' W 080°07'2 2.8
2016-Apr-24 21:33N 26°06' W 080°05'2 1.6
2016-Apr-24 20:34N 26°06' W 080°07'0 0.5
2016-Apr-24 19:33N 26°06' W 080°07'3 2.9
2016-Apr-24 18:33N 26°05' W 080°04'3 2.7
2016-Apr-24 17:34N 26°06' W 080°07'0 0.5
2016-Apr-24 16:33N 26°06' W 080°07'0 0.2
2016-Apr-24 15:33N 26°06' W 080°07'0 0.4
2016-Apr-24 14:34N 26°06' W 080°07'1 0.7
2016-Apr-24 13:33N 26°05' W 080°07'2 2.0
2016-Apr-24 12:33N 26°05' W 080°05'2 2.2
2016-Apr-24 11:33N 26°04' W 080°07'1 1.0
2016-Apr-24 10:07N 26°06' W 080°07'1 2.6
2016-Apr-24 09:33N 26°05' W 080°06'1 1.4
2016-Apr-24 08:34N 26°05' W 080°07'3 2.9
2016-Apr-24 07:33N 26°05' W 080°04'3 0.6
2016-Apr-24 02:15N 26°06' W 080°07'1 0.9
2016-Apr-24 01:33N 26°06' W 080°07'1 0.6
2016-Apr-24 00:33N 26°06' W 080°07'1 0.7
2016-Apr-23 23:33N 26°05' W 080°07'1 0.8
2016-Apr-23 22:33N 26°06' W 080°06'1 0.6
2016-Apr-23 21:33N 26°06' W 080°07'0 0.1
2016-Apr-23 20:33N 26°06' W 080°07'1 0.8
2016-Apr-23 19:33N 26°06' W 080°07'1 0.2
2016-Apr-23 16:33N 26°06' W 080°07'1 0.7
2016-Apr-23 15:33N 26°06' W 080°07'4 3.6
2016-Apr-23 14:33N 26°06' W 080°03'3 3.0
2016-Apr-23 13:34N 26°06' W 080°07'0 0.5
2016-Apr-23 12:33N 26°05' W 080°07'1 1.3
2016-Apr-23 11:33N 26°06' W 080°06'2 1.9
2016-Apr-23 10:33N 26°06' W 080°04'3 3.0
2016-Apr-23 09:33N 26°06' W 080°07'1 0.6
2016-Apr-23 08:33N 26°05' W 080°07'1 1.0
2016-Apr-23 07:33N 26°06' W 080°07'2 1.8
2016-Apr-23 06:33N 26°04' W 080°07'2 2.2
2016-Apr-23 05:33N 26°05' W 080°05'3 2.2
2016-Apr-23 04:25N 26°06' W 080°07'0 0.2
2016-Apr-23 03:33N 26°06' W 080°07'0 0.1
2016-Apr-23 01:33N 26°06' W 080°07'0 0.1
2016-Apr-22 23:03N 26°06' W 080°07'1 1.7
2016-Apr-22 22:33N 26°06' W 080°07'1 1.3
2016-Apr-22 21:33N 26°04' W 080°07'1 0.6
2016-Apr-22 20:34N 26°05' W 080°07'  
Track history (hours):
 
Tides and Currents Weather Stations Pressure Air Temp Water Temp Dewpoint Dewpoint Depression Visibility Wind Speed Wind Dir Waves Ship Positions

Pilot No 5

Owner: P E P INC, FT LAUDERDALE, FL. More information available from US FCC via Universal Licensing System and Coast Guard Vessel Documentation Center.

Last reported at 2016-May-02 18:06 UTC. Time now 2016-May-03 06:47 UTC.
Position N 26°06' W 080°07'.

Length 6 m.

Type: Pilot. MMSI: 367015090.

Date/timePositionNaut miles runAvg speedWind from/ knotsBaromVisibWave heightAir tempDewpointWater temp
2016-May-02 18:06N 26°06' W 080°07'2 3.1
2016-May-02 17:33N 26°04' W 080°07'1 1.1
2016-May-02 16:34N 26°06' W 080°07'0 0.4
2016-May-02 15:25N 26°06' W 080°07'0 0.3
2016-May-02 14:33N 26°06' W 080°07'3 3.5
2016-May-02 13:33N 26°06' W 080°03'3 3.1
2016-May-02 12:33N 26°06' W 080°07'3 3.4
2016-May-02 11:33N 26°06' W 080°03'1 1.3
2016-May-02 10:33N 26°06' W 080°04'3 2.6
2016-May-02 09:33N 26°04' W 080°07'2 1.3
2016-May-02 08:12N 26°06' W 080°07'2 2.8
2016-May-02 07:33N 26°06' W 080°05'1 0.5
2016-May-02 04:33N 26°06' W 080°07'0 0.1
2016-May-02 03:33N 26°06' W 080°07'1 0.3
2016-May-02 01:28N 26°06' W 080°07'0 0.5
2016-May-02 00:33N 26°06' W 080°07'0 0.4
2016-May-01 23:23N 26°06' W 080°07'1 0.9
2016-May-01 22:33N 26°05' W 080°07'0 0.2
2016-May-01 21:33N 26°05' W 080°07'0 0.3
2016-May-01 20:33N 26°06' W 080°07'1 0.7
2016-May-01 18:33N 26°06' W 080°05'2 0.5
2016-May-01 15:06N 26°06' W 080°07'1 1.5
2016-May-01 14:33N 26°06' W 080°07'3 3.1
2016-May-01 13:33N 26°05' W 080°03'3 3.3
2016-May-01 12:34N 26°06' W 080°07'0 0.3
2016-May-01 11:33N 26°06' W 080°07'1 0.4
2016-May-01 10:22N 26°06' W 080°07'1 1.3
2016-May-01 09:33N 26°05' W 080°07'1 0.6
2016-May-01 08:33N 26°06' W 080°06'1 0.8
2016-May-01 07:33N 26°05' W 080°07'1 1.0
2016-May-01 06:33N 26°06' W 080°07'2 1.9
2016-May-01 05:33N 26°06' W 080°05'1 1.4
2016-May-01 04:33N 26°05' W 080°07'0 0.3
2016-May-01 03:33N 26°06' W 080°07'1 0.7
2016-May-01 02:33N 26°06' W 080°07'3 3.0
2016-May-01 01:34N 26°05' W 080°05'3 3.0
2016-May-01 00:33N 26°06' W 080°07'0 0.5
2016-Apr-30 23:33N 26°06' W 080°07'1 1.5
2016-Apr-30 22:33N 26°04' W 080°07'1 1.3
2016-Apr-30 21:33N 26°06' W 080°07'0 0.1
2016-Apr-30 20:33N 26°06' W 080°07'1 0.8
2016-Apr-30 19:33N 26°06' W 080°07'0 0.0
2016-Apr-30 09:24N 26°06' W 080°07'5 6.0
2016-Apr-30 08:33N 26°05' W 080°02'5 5.0
2016-Apr-30 07:33N 26°06' W 080°07'2 2.2
2016-Apr-30 06:33N 26°05' W 080°05'2 1.9
2016-Apr-30 05:33N 26°05' W 080°07'0 0.4
2016-Apr-30 04:33N 26°05' W 080°07'1 1.1
2016-Apr-30 03:33N 26°06' W 080°07'0 0.1
2016-Apr-30 01:33N 26°06' W 080°07'1 0.6
2016-Apr-30 00:34N 26°06' W 080°07'1 0.3
2016-Apr-29 22:33N 26°06' W 080°07'0 0.4
2016-Apr-29 21:33N 26°05' W 080°07'2 2.5
2016-Apr-29 20:33N 26°06' W 080°05'3 0.5
2016-Apr-29 14:33N 26°04' W 080°07'2 1.7
2016-Apr-29 13:33N 26°06' W 080°07'0 0.0
2016-Apr-29 12:33N 26°06' W 080°07'0 0.2
2016-Apr-29 11:33N 26°06' W 080°07'1 0.8
2016-Apr-29 10:33N 26°05' W 080°07'0 0.1
2016-Apr-29 09:33N 26°05' W 080°07'2 1.5
2016-Apr-29 08:34N 26°06' W 080°05'2 1.9
2016-Apr-29 07:33N 26°04' W 080°07'0 0.3
2016-Apr-29 06:33N 26°05' W 080°07'2 2.2
2016-Apr-29 05:34N 26°06' W 080°05'2 2.0
2016-Apr-29 04:33N 26°05' W 080°07'1 1.1
2016-Apr-29 03:33N 26°06' W 080°07'3 2.8
2016-Apr-29 02:33N 26°06' W 080°04'2 2.3
2016-Apr-29 01:33N 26°06' W 080°07'1 1.1
2016-Apr-29 00:33N 26°06' W 080°06'0 0.1
2016-Apr-28 23:33N 26°06' W 080°05'1 1.1
2016-Apr-28 22:34N 26°06' W 080°07'1 0.1
2016-Apr-28 13:33N 26°06' W 080°07'0 0.0
2016-Apr-28 11:30N 26°06' W 080°07'4 4.4
2016-Apr-28 10:33N 26°06' W 080°03'3 3.5
2016-Apr-28 09:33N 26°06' W 080°07'1 0.5
2016-Apr-28 08:33N 26°06' W 080°07'1 1.1
2016-Apr-28 07:33N 26°04' W 080°07'2 1.5
2016-Apr-28 06:33N 26°06' W 080°06'1 1.1
2016-Apr-28 05:18N 26°06' W 080°07'1 1.7
2016-Apr-28 04:33N 26°06' W 080°06'1 0.6
2016-Apr-28 03:33N 26°06' W 080°07'1 0.3
2016-Apr-28 01:11N 26°06' W 080°07'4 6.8
2016-Apr-28 00:34N 26°06' W 080°03'4 4.0
2016-Apr-27 23:33N 26°06' W 080°07'1 0.8
2016-Apr-27 22:33N 26°05' W 080°07'2 2.3
2016-Apr-27 21:33N 26°06' W 080°04'3 2.8
2016-Apr-27 20:33N 26°04' W 080°07'2 1.6
2016-Apr-27 19:33N 26°06' W 080°07'1 0.4
2016-Apr-27 18:09N 26°06' W 080°07'2 3.0
2016-Apr-27 17:33N 26°04' W 080°07'2 1.6
2016-Apr-27 16:33N 26°06' W 080°06'2 1.5
2016-Apr-27 15:33N 26°06' W 080°07'0 0.0
2016-Apr-27 14:34N 26°06' W 080°07'0 0.0
2016-Apr-27 13:34N 26°06' W 080°07'3 2.7
2016-Apr-27 12:34N 26°06' W 080°04'3 2.7
2016-Apr-27 11:34N 26°06' W 080°07'0 0.0
2016-Apr-27 10:33N 26°06' W 080°07'0 0.0
2016-Apr-27 03:08N 26°06' W 080°07'0 0.8
2016-Apr-27 02:33N 26°06' W 080°07'0 0.5
2016-Apr-27 01:30N 26°06' W 080°07'1 0.3
2016-Apr-26 23:34N 26°06' W 080°07'0 0.4
2016-Apr-26 22:33N 26°05' W 080°07'1 0.7
2016-Apr-26 21:33N 26°06' W 080°07'3 3.2
2016-Apr-26 20:33N 26°06' W 080°04'3 3.2
2016-Apr-26 19:33N 26°06' W 080°07'3 2.5
2016-Apr-26 18:32N 26°04' W 080°08'3 2.7
2016-Apr-26 17:33N 26°06' W 080°06'1 1.3
2016-Apr-26 16:33N 26°06' W 080°07'0 0.4
2016-Apr-26 15:33N 26°06' W 080°07'0 0.1
2016-Apr-26 14:33N 26°06' W 080°07'0 0.1
2016-Apr-26 13:33N 26°06' W 080°07'1 1.3
2016-Apr-26 12:33N 26°06' W 080°06'1 0.5
2016-Apr-26 11:33N 26°06' W 080°07'1 0.1
2016-Apr-26 02:33N 26°06' W 080°07'0 0.1
2016-Apr-26 01:33N 26°06' W 080°07'1 0.6
2016-Apr-26 00:33N 26°06' W 080°07'2 1.8
2016-Apr-25 23:33N 26°06' W 080°05'2 1.6
2016-Apr-25 22:33N 26°05' W 080°07'0 0.2
2016-Apr-25 21:33N 26°06' W 080°07'2 2.0
2016-Apr-25 20:33N 26°05' W 080°05'3 0.7
2016-Apr-25 17:04N 26°06' W 080°07'0 0.0
2016-Apr-25 16:33N 26°06' W 080°07'1 1.5
2016-Apr-25 15:33N 26°06' W 080°06'1 0.8
2016-Apr-25 14:33N 26°05' W 080°05'2 2.0
2016-Apr-25 13:33N 26°06' W 080°07'1 0.6
2016-Apr-25 12:33N 26°06' W 080°07'3 3.3
2016-Apr-25 11:34N 26°05' W 080°03'3 3.3
2016-Apr-25 10:33N 26°06' W 080°06'0 0.3
2016-Apr-25 09:33N 26°06' W 080°07'3 3.2
2016-Apr-25 08:34N 26°06' W 080°03'2 1.5
2016-Apr-25 07:33N 26°05' W 080°05'2 2.1
2016-Apr-25 06:33N 26°04' W 080°07'2 0.6
2016-Apr-25 03:08N 26°06' W 080°07'1 1.3
2016-Apr-25 02:33N 26°05' W 080°07'0 0.3
2016-Apr-25 01:33N 26°06' W 080°07'0 0.2
2016-Apr-24 22:14N 26°06' W 080°07'2 2.8
2016-Apr-24 21:33N 26°06' W 080°05'2 1.6
2016-Apr-24 20:34N 26°06' W 080°07'0 0.5
2016-Apr-24 19:33N 26°06' W 080°07'3 2.9
2016-Apr-24 18:33N 26°05' W 080°04'3 2.7
2016-Apr-24 17:34N 26°06' W 080°07'0 0.5
2016-Apr-24 16:33N 26°06' W 080°07'0 0.2
2016-Apr-24 15:33N 26°06' W 080°07'0 0.4
2016-Apr-24 14:34N 26°06' W 080°07'1 0.7
2016-Apr-24 13:33N 26°05' W 080°07'2 2.0
2016-Apr-24 12:33N 26°05' W 080°05'2 2.2
2016-Apr-24 11:33N 26°04' W 080°07'1 1.0
2016-Apr-24 10:07N 26°06' W 080°07'1 2.6
2016-Apr-24 09:33N 26°05' W 080°06'1 1.4
2016-Apr-24 08:34N 26°05' W 080°07'3 2.9
2016-Apr-24 07:33N 26°05' W 080°04'3 0.6
2016-Apr-24 02:15N 26°06' W 080°07'1 0.9
2016-Apr-24 01:33N 26°06' W 080°07'1 0.6
2016-Apr-24 00:33N 26°06' W 080°07'1 0.7
2016-Apr-23 23:33N 26°05' W 080°07'1 0.8
2016-Apr-23 22:33N 26°06' W 080°06'1 0.6
2016-Apr-23 21:33N 26°06' W 080°07'0 0.1
2016-Apr-23 20:33N 26°06' W 080°07'1 0.8
2016-Apr-23 19:33N 26°06' W 080°07'1 0.2
2016-Apr-23 16:33N 26°06' W 080°07'1 0.7
2016-Apr-23 15:33N 26°06' W 080°07'4 3.6
2016-Apr-23 14:33N 26°06' W 080°03'3 3.0
2016-Apr-23 13:34N 26°06' W 080°07'0 0.5
2016-Apr-23 12:33N 26°05' W 080°07'1 1.3
2016-Apr-23 11:33N 26°06' W 080°06'2 1.9
2016-Apr-23 10:33N 26°06' W 080°04'3 3.0
2016-Apr-23 09:33N 26°06' W 080°07'1 0.6
2016-Apr-23 08:33N 26°05' W 080°07'1 1.0
2016-Apr-23 07:33N 26°06' W 080°07'2 1.8
2016-Apr-23 06:33N 26°04' W 080°07'2 2.2
2016-Apr-23 05:33N 26°05' W 080°05'3 2.2
2016-Apr-23 04:25N 26°06' W 080°07'0 0.2
2016-Apr-23 03:33N 26°06' W 080°07'0 0.1
2016-Apr-23 01:33N 26°06' W 080°07'0 0.1
2016-Apr-22 23:03N 26°06' W 080°07'1 1.7
2016-Apr-22 22:33N 26°06' W 080°07'1 1.3
2016-Apr-22 21:33N 26°04' W 080°07'1 0.6
2016-Apr-22 20:34N 26°05' W 080°07'  

Dump ship's entire track history